Lamlash, United Kingdom
Current Conditions -  °F | °C
As of 7:20 AM on Friday 19 Dec 2014 (Local Time) from EGPK Reporting Station
Scattered Clouds Scattered Clouds  
Wind Chill: 33°   Ceiling: Unl
Heat Index: 43°   Visibility: 6mi
Dew Point: 36°   Wind: 24mph
Humidity: 76%   Direction: 260°W
Pressure: 29.62"   Gusts: 39mph
Location:  55.53°N, 5.13°W
Report Text: EGPK 190720Z 26021G34KT 9999 SCT020 06/02 Q1003
Loading
Personal Weather Stations






























Interactive Weather Map New forecast layout! Learn more

10-Day Weather Forecast

Advertisements
Track Severe Weather on mobile